createdAt,value
2023-04-11T00:00:25.397Z,36.15
2023-04-11T00:02:54.896Z,36.32
2023-04-11T00:05:22.565Z,36.37
2023-04-11T00:07:50.751Z,36.41
2023-04-11T00:10:18.472Z,36.50
2023-04-11T00:12:46.344Z,36.53
2023-04-11T00:15:16.188Z,36.62
2023-04-11T00:17:45.781Z,36.60
2023-04-11T00:20:14.082Z,36.42
2023-04-11T00:22:42.098Z,36.58
2023-04-11T00:25:09.917Z,36.72
2023-04-11T00:27:37.379Z,36.77
2023-04-11T00:30:07.968Z,36.83
2023-04-11T00:32:35.809Z,36.91
2023-04-11T00:35:03.385Z,36.90
2023-04-11T00:37:35.982Z,36.88
2023-04-11T00:40:05.853Z,36.92
2023-04-11T00:42:33.757Z,36.92
2023-04-11T00:45:01.257Z,37.02
2023-04-11T00:47:29.040Z,37.17
2023-04-11T00:49:56.542Z,37.20
2023-04-11T00:52:24.301Z,37.25
2023-04-11T00:54:52.057Z,37.32
2023-04-11T00:57:19.519Z,37.35
2023-04-11T00:59:51.130Z,37.35
2023-04-11T01:02:19.043Z,37.40
2023-04-11T01:04:46.614Z,37.36
2023-04-11T01:07:14.108Z,37.35
2023-04-11T01:09:41.845Z,37.36
2023-04-11T01:12:09.410Z,37.38
2023-04-11T01:14:36.872Z,37.42
2023-04-11T01:17:04.704Z,37.37
2023-04-11T01:19:32.575Z,37.33
2023-04-11T01:22:01.085Z,37.27
2023-04-11T01:24:28.957Z,37.26
2023-04-11T01:26:57.165Z,37.25
2023-04-11T01:29:24.800Z,37.24
2023-04-11T01:31:52.568Z,37.29
2023-04-11T01:34:20.047Z,37.28
2023-04-11T01:36:48.461Z,37.29
2023-04-11T01:39:16.154Z,37.27
2023-04-11T01:41:43.672Z,37.28
2023-04-11T01:44:11.192Z,37.31
2023-04-11T01:46:38.959Z,37.33
2023-04-11T01:49:06.484Z,37.33
2023-04-11T01:51:34.065Z,37.34
2023-04-11T01:54:01.848Z,37.32
2023-04-11T01:56:29.309Z,37.42
2023-04-11T01:58:59.167Z,37.43
2023-04-11T02:01:27.897Z,37.44
2023-04-11T02:03:55.739Z,37.50
2023-04-11T02:06:23.238Z,37.57
2023-04-11T02:08:51.471Z,37.62
2023-04-11T02:11:19.204Z,37.66
2023-04-11T02:13:49.843Z,37.68
2023-04-11T02:16:18.089Z,37.67
2023-04-11T02:18:46.409Z,37.70
2023-04-11T02:21:13.994Z,37.71
2023-04-11T02:23:41.423Z,37.72
2023-04-11T02:26:09.251Z,37.74
2023-04-11T02:28:36.836Z,37.78
2023-04-11T02:31:05.911Z,37.80
2023-04-11T02:33:33.690Z,37.85
2023-04-11T02:36:01.180Z,37.79
2023-04-11T02:38:28.654Z,37.78
2023-04-11T02:40:56.342Z,37.84
2023-04-11T02:43:23.769Z,37.85
2023-04-11T02:45:54.289Z,37.81
2023-04-11T02:48:27.383Z,37.86
2023-04-11T02:50:54.826Z,37.82
2023-04-11T02:53:24.011Z,37.85
2023-04-11T02:55:51.794Z,37.86
2023-04-11T02:58:20.176Z,37.84
2023-04-11T03:00:49.277Z,37.84
2023-04-11T03:03:17.289Z,37.84
2023-04-11T03:05:45.239Z,37.79
2023-04-11T03:08:13.429Z,37.84
2023-04-11T03:10:41.858Z,37.86
2023-04-11T03:13:10.016Z,37.88
2023-04-11T03:15:37.627Z,37.88
2023-04-11T03:18:05.991Z,37.92
2023-04-11T03:20:33.735Z,37.93
2023-04-11T03:23:01.315Z,37.98
2023-04-11T03:25:29.674Z,38.00
2023-04-11T03:27:57.672Z,37.98
2023-04-11T03:30:25.243Z,37.96
2023-04-11T03:32:53.174Z,37.94
2023-04-11T03:35:20.913Z,37.94
2023-04-11T03:37:49.283Z,37.93
2023-04-11T03:40:18.702Z,37.98
2023-04-11T03:42:46.751Z,37.94
2023-04-11T03:45:14.771Z,37.95
2023-04-11T03:47:42.807Z,37.97
2023-04-11T03:50:11.567Z,37.99
2023-04-11T03:52:39.814Z,37.99
2023-04-11T03:55:09.756Z,37.98
2023-04-11T03:57:37.271Z,37.94
2023-04-11T04:00:06.465Z,37.97
2023-04-11T04:02:42.528Z,37.99
2023-04-11T04:05:11.564Z,37.97
2023-04-11T04:07:39.716Z,37.96
2023-04-11T04:10:08.130Z,37.99
2023-04-11T04:12:35.980Z,38.01
2023-04-11T04:15:04.287Z,38.02
2023-04-11T04:17:31.890Z,38.00
2023-04-11T04:20:05.927Z,37.98
2023-04-11T04:22:36.023Z,38.01
2023-04-11T04:25:04.116Z,37.98
2023-04-11T04:27:32.401Z,37.99
2023-04-11T04:30:04.200Z,37.99
2023-04-11T04:32:33.047Z,37.98
2023-04-11T04:35:01.631Z,37.99
2023-04-11T04:37:29.376Z,37.98
2023-04-11T04:40:02.099Z,37.96
2023-04-11T04:42:31.106Z,37.95
2023-04-11T04:45:00.855Z,37.96
2023-04-11T04:47:33.633Z,37.97
2023-04-11T04:50:01.451Z,38.05
2023-04-11T04:52:29.345Z,38.04
2023-04-11T04:55:01.274Z,38.05
2023-04-11T04:57:29.541Z,38.08
2023-04-11T04:59:57.249Z,38.07
2023-04-11T05:02:27.804Z,38.10
2023-04-11T05:04:58.135Z,38.04
2023-04-11T05:07:26.530Z,38.07
2023-04-11T05:09:54.883Z,38.04
2023-04-11T05:12:27.016Z,38.04
2023-04-11T05:14:56.760Z,38.04
2023-04-11T05:17:26.257Z,38.04
2023-04-11T05:19:54.399Z,38.00
2023-04-11T05:22:21.947Z,38.00
2023-04-11T05:24:50.192Z,38.04
2023-04-11T05:27:18.663Z,38.02
2023-04-11T05:29:46.581Z,38.01
2023-04-11T05:32:14.775Z,38.03
2023-04-11T05:34:55.185Z,38.03
2023-04-11T05:37:25.193Z,38.03
2023-04-11T05:39:53.099Z,38.02
2023-04-11T05:42:22.031Z,38.00
2023-04-11T05:44:49.750Z,37.98
2023-04-11T05:47:17.220Z,38.02
2023-04-11T05:49:44.705Z,38.00
2023-04-11T05:52:12.451Z,38.00
2023-04-11T05:54:39.881Z,37.98
2023-04-11T05:57:07.745Z,37.99
2023-04-11T05:59:36.113Z,37.97
2023-04-11T06:02:03.983Z,37.98
2023-04-11T06:04:32.066Z,37.98
2023-04-11T06:06:59.707Z,37.95
2023-04-11T06:09:27.512Z,37.95
2023-04-11T06:11:55.255Z,37.93
2023-04-11T06:14:22.764Z,37.96
2023-04-11T06:16:50.272Z,37.99
2023-04-11T06:19:18.095Z,37.98
2023-04-11T06:21:45.800Z,37.97
2023-04-11T06:24:13.188Z,37.96
2023-04-11T06:26:41.251Z,37.99
2023-04-11T06:29:08.700Z,37.98
2023-04-11T06:31:36.389Z,37.98
2023-04-11T06:34:04.142Z,37.98
2023-04-11T06:36:32.641Z,37.96
2023-04-11T06:39:00.339Z,37.98
2023-04-11T06:41:28.094Z,38.02
2023-04-11T06:43:55.909Z,38.04
2023-04-11T06:46:23.610Z,38.06
2023-04-11T06:48:51.441Z,38.04
2023-04-11T06:51:18.983Z,38.04
2023-04-11T06:53:46.584Z,38.01
2023-04-11T06:56:14.344Z,38.00
2023-04-11T06:58:41.862Z,37.98
2023-04-11T07:01:09.494Z,37.97
2023-04-11T07:03:38.137Z,37.99
2023-04-11T07:06:07.377Z,38.00
2023-04-11T07:08:34.828Z,37.97
2023-04-11T07:11:03.177Z,37.86
2023-04-11T07:13:30.674Z,37.84
2023-04-11T07:15:58.235Z,37.85
2023-04-11T07:18:28.764Z,37.93
2023-04-11T07:20:56.272Z,37.84
2023-04-11T07:23:24.091Z,37.79
2023-04-11T07:25:51.798Z,37.75
2023-04-11T07:28:19.252Z,37.68
2023-04-11T07:30:46.879Z,37.09
2023-04-11T07:33:14.573Z,37.11
2023-04-11T07:35:42.013Z,37.09
2023-04-11T07:38:10.639Z,37.10
2023-04-11T07:40:40.450Z,37.08
2023-04-11T07:43:07.978Z,37.11
2023-04-11T07:45:36.530Z,37.11
2023-04-11T07:48:04.485Z,37.20
2023-04-11T07:50:31.991Z,37.29
2023-04-11T07:52:59.435Z,37.29
2023-04-11T07:55:27.200Z,37.31
2023-04-11T07:57:54.904Z,37.35
2023-04-11T08:00:22.917Z,37.29
2023-04-11T08:02:51.947Z,37.32
2023-04-11T08:05:19.698Z,37.27
2023-04-11T08:07:47.311Z,37.10
2023-04-11T08:10:15.169Z,37.08
2023-04-11T08:12:42.603Z,37.16
2023-04-11T08:15:10.733Z,37.15
2023-04-11T08:17:39.029Z,37.10
2023-04-11T08:20:09.344Z,37.08
2023-04-11T08:22:36.950Z,37.09
2023-04-11T08:25:06.018Z,37.07
2023-04-11T08:27:33.503Z,37.07
2023-04-11T08:30:01.545Z,37.11
2023-04-11T08:32:29.300Z,37.14
2023-04-11T08:34:56.724Z,37.19
2023-04-11T08:37:24.164Z,37.22
2023-04-11T08:39:51.860Z,37.26
2023-04-11T08:42:29.693Z,37.26
2023-04-11T08:44:59.088Z,37.27
2023-04-11T08:47:26.770Z,37.24
2023-04-11T08:49:54.281Z,36.87
2023-04-11T08:52:24.143Z,36.75
2023-04-11T08:54:55.130Z,36.66
2023-04-11T08:57:35.079Z,36.67
2023-04-11T09:00:22.814Z,36.53
2023-04-11T09:02:56.866Z,36.78
2023-04-11T09:05:31.852Z,36.79
2023-04-11T09:08:03.397Z,36.61
2023-04-11T09:10:30.847Z,36.71
2023-04-11T09:12:58.416Z,36.74
2023-04-11T09:15:30.127Z,36.72
2023-04-11T09:18:00.529Z,36.68
2023-04-11T09:20:32.265Z,36.61
2023-04-11T09:22:59.812Z,36.61
2023-04-11T09:25:27.560Z,36.56
2023-04-11T09:28:09.051Z,36.53
2023-04-11T09:30:37.097Z,36.49
2023-04-11T09:33:23.848Z,36.47
2023-04-11T09:35:52.912Z,36.47
2023-04-11T09:38:34.469Z,36.48
2023-04-11T09:41:03.572Z,36.52
2023-04-11T09:43:51.482Z,36.59
2023-04-11T09:46:20.797Z,36.64
2023-04-11T09:48:49.241Z,36.70
2023-04-11T09:51:28.112Z,36.74
2023-04-11T09:54:03.595Z,36.77
2023-04-11T09:56:31.408Z,36.77
2023-04-11T09:58:59.978Z,36.77
2023-04-11T10:01:28.191Z,36.77
2023-04-11T10:03:56.745Z,36.76
2023-04-11T10:06:38.688Z,36.74
2023-04-11T10:09:11.191Z,36.72
2023-04-11T10:11:43.107Z,36.70
2023-04-11T10:14:39.021Z,36.69
2023-04-11T10:17:22.152Z,36.65
2023-04-11T10:19:56.479Z,36.66
2023-04-11T10:22:46.458Z,36.67
2023-04-11T10:25:21.127Z,36.63
2023-04-11T10:28:00.826Z,36.66
2023-04-11T10:30:41.075Z,36.64
2023-04-11T10:33:11.986Z,36.61
2023-04-11T10:35:59.457Z,36.60
2023-04-11T10:38:49.209Z,36.58
2023-04-11T10:41:27.666Z,36.61
2023-04-11T10:44:14.764Z,36.62
2023-04-11T10:46:50.780Z,36.62
2023-04-11T10:49:37.749Z,36.63
2023-04-11T10:52:22.432Z,36.63
2023-04-11T10:54:51.269Z,36.62
2023-04-11T10:57:19.103Z,36.64
2023-04-11T10:59:49.416Z,36.65
2023-04-11T11:02:17.044Z,36.64
2023-04-11T11:04:45.004Z,36.62
2023-04-11T11:07:13.351Z,36.63
2023-04-11T11:09:40.827Z,36.63
2023-04-11T11:12:15.713Z,36.63
2023-04-11T11:14:44.840Z,36.60
2023-04-11T11:17:13.309Z,36.60
2023-04-11T11:19:47.577Z,36.59
2023-04-11T11:22:16.059Z,36.58
2023-04-11T11:24:43.502Z,36.59
2023-04-11T11:27:22.908Z,36.59
2023-04-11T11:29:51.135Z,36.59
2023-04-11T11:32:22.817Z,36.59
2023-04-11T11:34:53.061Z,36.62
2023-04-11T11:37:21.589Z,36.62
2023-04-11T11:39:49.213Z,36.61
2023-04-11T11:42:16.623Z,36.62
2023-04-11T11:44:44.418Z,36.61
2023-04-11T11:47:15.112Z,36.60
2023-04-11T11:50:02.886Z,36.61
2023-04-11T11:52:34.413Z,36.58
2023-04-11T11:55:08.813Z,36.60
2023-04-11T11:57:38.620Z,36.60
2023-04-11T12:00:09.265Z,36.57
2023-04-11T12:02:38.268Z,36.56
2023-04-11T12:05:06.733Z,36.55
2023-04-11T12:07:36.186Z,36.55
2023-04-11T12:10:09.096Z,36.54
2023-04-11T12:12:37.778Z,36.50
2023-04-11T12:15:11.784Z,36.51
2023-04-11T12:17:39.517Z,36.51
2023-04-11T12:20:08.251Z,36.49
2023-04-11T12:22:36.124Z,36.49
2023-04-11T12:25:05.782Z,36.45
2023-04-11T12:27:34.940Z,36.42
2023-04-11T12:30:02.620Z,36.32
2023-04-11T12:32:33.850Z,36.32
2023-04-11T12:35:02.794Z,36.29
2023-04-11T12:37:31.111Z,36.27
2023-04-11T12:39:58.683Z,36.24
2023-04-11T12:42:27.398Z,36.21
2023-04-11T12:44:55.106Z,36.18
2023-04-11T12:47:22.644Z,36.17
2023-04-11T12:49:50.738Z,36.13
2023-04-11T12:52:18.207Z,36.11
2023-04-11T12:54:46.126Z,36.06
2023-04-11T12:57:13.813Z,36.04
2023-04-11T12:59:41.432Z,36.01
2023-04-11T13:02:09.315Z,35.99
2023-04-11T13:04:37.221Z,35.99
2023-04-11T13:07:04.830Z,35.92
2023-04-11T13:09:33.964Z,35.97
2023-04-11T13:12:01.940Z,35.91
2023-04-11T13:14:29.543Z,35.85
2023-04-11T13:16:57.055Z,35.88
2023-04-11T13:19:24.966Z,35.88
2023-04-11T13:21:52.439Z,35.90
2023-04-11T13:24:19.909Z,35.95
2023-04-11T13:26:47.789Z,35.93
2023-04-11T13:29:15.315Z,35.88
2023-04-11T13:31:42.764Z,35.85
2023-04-11T13:34:10.872Z,35.79
2023-04-11T13:36:38.385Z,35.74
2023-04-11T13:39:06.276Z,35.67
2023-04-11T13:41:34.201Z,35.71
2023-04-11T13:44:01.728Z,35.75
2023-04-11T13:46:29.214Z,35.76
2023-04-11T13:48:57.256Z,35.78
2023-04-11T13:51:24.774Z,35.75
2023-04-11T13:53:52.188Z,35.73
2023-04-11T13:56:20.642Z,35.74
2023-04-11T13:58:48.074Z,35.79
2023-04-11T14:01:15.572Z,35.82
2023-04-11T14:03:44.683Z,35.67
2023-04-11T14:06:12.293Z,35.59
2023-04-11T14:08:39.823Z,35.50
2023-04-11T14:11:07.702Z,35.41
2023-04-11T14:13:35.143Z,35.43
2023-04-11T14:16:09.024Z,35.44
2023-04-11T14:18:37.272Z,35.46
2023-04-11T14:21:08.314Z,35.44
2023-04-11T14:23:36.837Z,35.42
2023-04-11T14:26:05.340Z,35.39
2023-04-11T14:28:32.809Z,35.36
2023-04-11T14:31:00.469Z,35.18
2023-04-11T14:33:28.230Z,35.06
2023-04-11T14:35:55.982Z,35.10
2023-04-11T14:38:23.421Z,34.99
2023-04-11T14:40:51.377Z,35.04
2023-04-11T14:43:19.507Z,35.13
2023-04-11T14:45:47.665Z,35.15
2023-04-11T14:48:16.017Z,35.21
2023-04-11T14:50:43.455Z,35.26
2023-04-11T14:53:11.161Z,35.31
2023-04-11T14:55:39.796Z,35.38
2023-04-11T14:58:07.354Z,35.44
2023-04-11T15:00:35.301Z,35.50
2023-04-11T15:03:03.408Z,35.56
2023-04-11T15:05:30.944Z,35.61
2023-04-11T15:07:58.432Z,35.67
2023-04-11T15:10:26.504Z,35.70
2023-04-11T15:12:53.939Z,35.73
2023-04-11T15:15:21.392Z,35.75
2023-04-11T15:17:49.905Z,35.81
2023-04-11T15:20:17.460Z,35.89
2023-04-11T15:22:45.563Z,35.95
2023-04-11T15:25:16.788Z,36.05
2023-04-11T15:27:44.246Z,36.08
2023-04-11T15:30:12.165Z,36.08
2023-04-11T15:32:42.628Z,36.15
2023-04-11T15:35:10.324Z,36.24
2023-04-11T15:37:37.743Z,36.27
2023-04-11T15:40:06.406Z,36.28
2023-04-11T15:42:35.598Z,36.27
2023-04-11T15:45:03.689Z,36.28
2023-04-11T15:47:31.570Z,36.31
2023-04-11T15:50:01.996Z,36.29
2023-04-11T15:52:29.518Z,36.31
2023-04-11T15:54:57.388Z,36.35
2023-04-11T15:57:26.214Z,36.39
2023-04-11T15:59:53.666Z,36.40
2023-04-11T16:02:21.598Z,36.40
2023-04-11T16:04:52.869Z,36.44
2023-04-11T16:07:25.011Z,36.41
2023-04-11T16:09:52.730Z,36.44
2023-04-11T16:12:20.275Z,36.46
2023-04-11T16:14:47.720Z,36.44
2023-04-11T16:17:15.675Z,36.48
2023-04-11T16:19:43.162Z,36.48
2023-04-11T16:22:10.843Z,36.46
2023-04-11T16:24:38.732Z,36.45
2023-04-11T16:27:06.210Z,36.48
2023-04-11T16:29:33.692Z,36.49
2023-04-11T16:32:01.492Z,36.50
2023-04-11T16:34:28.919Z,36.49
2023-04-11T16:36:56.771Z,36.50
2023-04-11T16:39:25.522Z,36.51
2023-04-11T16:41:54.972Z,36.49
2023-04-11T16:44:25.494Z,36.47
2023-04-11T16:46:53.569Z,36.44
2023-04-11T16:49:21.242Z,36.47
2023-04-11T16:51:48.806Z,36.58
2023-04-11T16:54:17.096Z,36.68
2023-04-11T16:56:44.622Z,36.74
2023-04-11T16:59:12.370Z,36.74
2023-04-11T17:01:41.684Z,36.68
2023-04-11T17:04:09.444Z,36.61
2023-04-11T17:06:37.164Z,36.48
2023-04-11T17:09:07.869Z,36.42
2023-04-11T17:11:37.808Z,36.34
2023-04-11T17:14:05.688Z,36.23
2023-04-11T17:16:33.169Z,36.14
2023-04-11T17:19:00.853Z,36.08
2023-04-11T17:21:28.567Z,36.00
2023-04-11T17:23:56.011Z,35.89
2023-04-11T17:26:23.624Z,35.84
2023-04-11T17:28:51.856Z,35.81
2023-04-11T17:31:19.742Z,35.71
2023-04-11T17:33:47.274Z,35.63
2023-04-11T17:36:15.035Z,35.58
2023-04-11T17:38:43.462Z,35.52
2023-04-11T17:41:14.883Z,35.47
2023-04-11T17:43:43.911Z,35.39
2023-04-11T17:46:12.466Z,35.50
2023-04-11T17:48:40.267Z,35.55
2023-04-11T17:51:08.040Z,35.45
2023-04-11T17:53:35.713Z,35.37
2023-04-11T17:56:05.522Z,35.22
2023-04-11T17:58:33.854Z,35.09
2023-04-11T18:01:03.854Z,35.03
2023-04-11T18:03:35.146Z,35.02
2023-04-11T18:06:03.437Z,34.94
2023-04-11T18:08:49.093Z,35.01
2023-04-11T18:11:17.872Z,34.97
2023-04-11T18:13:48.322Z,34.83
2023-04-11T18:16:17.975Z,34.88
2023-04-11T18:18:47.171Z,34.87
2023-04-11T18:21:16.185Z,34.83
2023-04-11T18:23:45.420Z,34.79
2023-04-11T18:26:13.246Z,34.75
2023-04-11T18:28:41.087Z,34.75
2023-04-11T18:31:10.694Z,34.66
2023-04-11T18:33:42.762Z,34.63
2023-04-11T18:36:26.472Z,34.60
2023-04-11T18:38:55.070Z,34.53
2023-04-11T18:41:23.013Z,34.48
2023-04-11T18:43:54.322Z,34.51
2023-04-11T18:46:22.519Z,34.65
2023-04-11T18:48:50.467Z,34.71
2023-04-11T18:51:19.483Z,34.72
2023-04-11T18:53:49.157Z,34.72
2023-04-11T18:56:17.219Z,34.78
2023-04-11T18:58:50.092Z,34.78
2023-04-11T19:01:21.289Z,34.83
2023-04-11T19:03:50.301Z,34.85
2023-04-11T19:06:19.600Z,34.88
2023-04-11T19:08:48.270Z,34.94
2023-04-11T19:11:16.311Z,35.00
2023-04-11T19:13:44.417Z,35.03
2023-04-11T19:16:15.454Z,35.07
2023-04-11T19:18:43.794Z,35.12
2023-04-11T19:21:12.578Z,35.17
2023-04-11T19:23:41.423Z,35.18
2023-04-11T19:26:10.219Z,35.20
2023-04-11T19:28:39.232Z,35.22
2023-04-11T19:31:07.487Z,35.24
2023-04-11T19:33:39.417Z,35.24
2023-04-11T19:36:12.524Z,35.25
2023-04-11T19:38:40.836Z,35.28
2023-04-11T19:41:11.690Z,35.21
2023-04-11T19:43:39.441Z,35.05
2023-04-11T19:46:07.767Z,35.00
2023-04-11T19:48:36.830Z,34.93
2023-04-11T19:51:06.905Z,34.94
2023-04-11T19:53:35.584Z,34.89
2023-04-11T19:56:04.636Z,34.88
2023-04-11T19:58:36.974Z,34.84
2023-04-11T20:01:07.006Z,34.83
2023-04-11T20:03:35.658Z,34.83
2023-04-11T20:06:08.043Z,34.68
2023-04-11T20:08:47.525Z,34.77
2023-04-11T20:11:17.944Z,34.88
2023-04-11T20:13:46.882Z,34.92
2023-04-11T20:16:14.782Z,35.00
2023-04-11T20:18:42.727Z,34.97
2023-04-11T20:21:12.311Z,35.03
2023-04-11T20:23:41.122Z,35.06
2023-04-11T20:26:09.519Z,35.13
2023-04-11T20:28:38.138Z,35.17
2023-04-11T20:31:06.677Z,35.26
2023-04-11T20:33:34.198Z,35.33
2023-04-11T20:36:03.344Z,35.33
2023-04-11T20:38:31.378Z,35.37
2023-04-11T20:40:58.814Z,35.46
2023-04-11T20:43:26.778Z,35.56
2023-04-11T20:45:54.241Z,35.64
2023-04-11T20:48:21.775Z,35.64
2023-04-11T20:50:50.015Z,35.67
2023-04-11T20:53:17.557Z,35.78
2023-04-11T20:55:45.005Z,35.85
2023-04-11T20:58:17.051Z,36.00
2023-04-11T21:00:44.581Z,36.00
2023-04-11T21:03:12.445Z,35.98
2023-04-11T21:05:44.282Z,36.00
2023-04-11T21:08:12.057Z,35.91
2023-04-11T21:10:39.963Z,35.88
2023-04-11T21:13:07.401Z,35.81
2023-04-11T21:15:34.998Z,35.30
2023-04-11T21:18:04.869Z,35.40
2023-04-11T21:20:33.582Z,35.16
2023-04-11T21:23:02.689Z,34.91
2023-04-11T21:25:31.486Z,34.87
2023-04-11T21:27:58.986Z,34.85
2023-04-11T21:30:26.418Z,34.85
2023-04-11T21:32:54.207Z,34.85
2023-04-11T21:35:21.621Z,34.87
2023-04-11T21:37:49.319Z,34.88
2023-04-11T21:40:17.138Z,34.92
2023-04-11T21:42:44.608Z,34.99
2023-04-11T21:45:12.072Z,35.06
2023-04-11T21:47:40.010Z,35.12
2023-04-11T21:50:08.101Z,35.14
2023-04-11T21:52:35.550Z,35.23
2023-04-11T21:55:03.256Z,35.29
2023-04-11T21:57:33.863Z,35.28
2023-04-11T22:00:01.260Z,35.30
2023-04-11T22:02:39.346Z,35.30
2023-04-11T22:05:09.244Z,35.33
2023-04-11T22:07:49.033Z,35.37
2023-04-11T22:10:23.793Z,35.42
2023-04-11T22:12:53.976Z,35.48
2023-04-11T22:15:21.724Z,35.50
2023-04-11T22:17:50.830Z,35.36
2023-04-11T22:20:20.015Z,35.50
2023-04-11T22:22:48.089Z,35.54
2023-04-11T22:25:18.146Z,35.67
2023-04-11T22:27:45.476Z,35.86
2023-04-11T22:30:14.509Z,35.76
2023-04-11T22:32:42.048Z,35.92
2023-04-11T22:35:10.431Z,36.04
2023-04-11T22:37:38.158Z,36.12
2023-04-11T22:40:06.309Z,36.14
2023-04-11T22:42:33.858Z,36.23
2023-04-11T22:45:01.651Z,36.25
2023-04-11T22:47:29.181Z,36.35
2023-04-11T22:49:57.906Z,36.43
2023-04-11T22:52:25.896Z,36.42
2023-04-11T22:54:54.693Z,36.41
2023-04-11T22:57:22.166Z,36.44
2023-04-11T22:59:49.880Z,36.46
2023-04-11T23:02:17.455Z,36.46
2023-04-11T23:04:45.160Z,36.50
2023-04-11T23:07:12.960Z,36.51
2023-04-11T23:09:40.365Z,36.53
2023-04-11T23:12:08.348Z,36.53
2023-04-11T23:14:36.136Z,36.53
2023-04-11T23:17:03.542Z,36.52
2023-04-11T23:19:31.024Z,36.65
2023-04-11T23:21:59.485Z,36.64
2023-04-11T23:24:27.232Z,36.64
2023-04-11T23:26:54.675Z,36.66
2023-04-11T23:29:22.474Z,36.66
2023-04-11T23:31:49.853Z,36.67
2023-04-11T23:34:17.267Z,36.67
2023-04-11T23:36:45.004Z,36.66
2023-04-11T23:39:12.480Z,36.65
2023-04-11T23:41:39.970Z,36.75
2023-04-11T23:44:07.656Z,36.76
2023-04-11T23:46:35.183Z,36.76
2023-04-11T23:49:02.732Z,36.77
2023-04-11T23:51:30.426Z,36.80
2023-04-11T23:53:58.187Z,36.82
2023-04-11T23:56:26.253Z,36.80
2023-04-11T23:58:54.342Z,36.78
